Time;durP1;ratioP1;P1;durP2;ratioP2;P2;SDS_P1;SDS_P2;PMS_P1;PMS_P2;Temp;Humidity;BMP_temperature;BMP_pressure;BME280_temperature;BME280_humidity;BME280_pressure;Samples;Min_cycle;Max_cycle;Signal;HPM_P1;HPM_P2
2023/01/14 00:01:32;;;;;;;8.60;2.60;;;11.60;56.00;;;;;;5048212;28;20457;-86
2023/01/14 00:04:01;;;;;;;7.17;2.30;;;11.50;56.40;;;;;;5066562;28;20550;-87
2023/01/14 00:06:30;;;;;;;7.43;1.60;;;11.50;56.80;;;;;;5049030;28;20440;-88
2023/01/14 00:08:59;;;;;;;4.03;2.57;;;11.50;56.50;;;;;;5067796;28;20481;-85
2023/01/14 00:14:08;;;;;;;7.57;2.27;;;11.30;56.90;;;;;;5052055;28;20439;-86
2023/01/14 00:16:35;;;;;;;4.63;1.50;;;11.40;56.80;;;;;;5060591;28;20482;-86
2023/01/14 00:19:03;;;;;;;5.83;2.60;;;11.40;56.70;;;;;;5069270;28;20465;-85
2023/01/14 00:21:30;;;;;;;3.60;2.03;;;11.40;56.30;;;;;;5049469;28;20443;-87
2023/01/14 00:23:57;;;;;;;8.30;2.40;;;11.40;56.40;;;;;;5053447;28;20451;-85
2023/01/14 00:26:25;;;;;;;5.17;1.77;;;11.20;56.30;;;;;;5044995;28;20450;-88
2023/01/14 00:28:52;;;;;;;9.93;2.70;;;11.00;56.90;;;;;;5082377;28;20462;-88
2023/01/14 00:31:21;;;;;;;10.13;2.50;;;11.10;56.70;;;;;;5098058;28;20477;-87
2023/01/14 00:33:49;;;;;;;7.83;1.90;;;11.00;56.80;;;;;;5063651;28;20832;-87
2023/01/14 00:36:21;;;;;;;5.73;2.00;;;11.00;57.50;;;;;;5047592;28;20616;-88
2023/01/14 00:38:49;;;;;;;4.10;1.60;;;10.80;56.80;;;;;;5065700;28;20447;-86
2023/01/14 00:41:18;;;;;;;10.23;2.57;;;10.70;56.70;;;;;;5039505;28;20993;-85
2023/01/14 00:43:47;;;;;;;5.27;1.80;;;10.90;57.10;;;;;;5076716;28;20474;-87
2023/01/14 00:46:15;;;;;;;8.03;2.27;;;11.00;56.50;;;;;;5047295;28;20978;-87
2023/01/14 00:48:42;;;;;;;7.23;2.00;;;11.00;56.50;;;;;;5050484;28;20455;-86
2023/01/14 00:51:10;;;;;;;6.80;1.90;;;10.90;56.30;;;;;;5065119;28;20890;-89
2023/01/14 00:53:40;;;;;;;9.17;2.10;;;10.90;56.60;;;;;;5061642;28;20442;-87
2023/01/14 00:56:07;;;;;;;6.30;2.03;;;11.00;56.40;;;;;;5051940;28;20474;-87
2023/01/14 00:58:37;;;;;;;4.70;1.80;;;11.10;56.60;;;;;;5062659;28;20549;-87
2023/01/14 01:01:04;;;;;;;2.30;1.60;;;11.30;56.30;;;;;;5046425;28;20492;-86
2023/01/14 01:03:32;;;;;;;6.67;2.30;;;11.20;56.20;;;;;;5079382;28;20503;-84
2023/01/14 01:05:59;;;;;;;17.53;7.10;;;11.00;56.40;;;;;;5051577;28;20530;-86
2023/01/14 01:08:26;;;;;;;13.43;4.20;;;11.00;56.60;;;;;;5047522;28;20447;-87
2023/01/14 01:10:56;;;;;;;16.63;5.60;;;11.10;56.40;;;;;;5093498;28;20998;-86
2023/01/14 01:13:23;;;;;;;6.93;3.63;;;11.20;56.20;;;;;;5047698;28;20439;-86
2023/01/14 01:15:51;;;;;;;16.77;7.83;;;11.20;56.30;;;;;;5062995;28;20471;-87
2023/01/14 01:18:19;;;;;;;41.43;15.00;;;11.30;56.60;;;;;;5095976;28;20931;-88
2023/01/14 01:20:46;;;;;;;24.47;7.43;;;11.30;55.80;;;;;;5047556;28;20855;-88
2023/01/14 01:23:14;;;;;;;7.90;2.47;;;11.10;56.20;;;;;;5080944;28;20455;-86
2023/01/14 01:25:41;;;;;;;23.80;7.13;;;11.00;56.60;;;;;;5050700;28;21009;-87
2023/01/14 01:28:10;;;;;;;32.50;14.00;;;10.90;56.70;;;;;;5048198;28;20473;-86
2023/01/14 01:30:37;;;;;;;7.87;3.40;;;10.90;56.90;;;;;;5061377;27;20493;-87
2023/01/14 01:33:04;;;;;;;14.60;4.93;;;10.90;56.50;;;;;;5049842;28;20446;-86
2023/01/14 01:35:31;;;;;;;15.70;5.30;;;11.00;56.60;;;;;;5050743;28;20455;-87
2023/01/14 01:38:00;;;;;;;18.33;6.80;;;10.80;56.60;;;;;;5069467;28;20471;-87
2023/01/14 01:40:26;;;;;;;7.60;3.60;;;10.80;56.80;;;;;;5085764;28;20833;-86
2023/01/14 01:42:56;;;;;;;14.80;6.70;;;10.80;56.50;;;;;;5051926;28;20443;-86
2023/01/14 01:45:31;;;;;;;20.00;7.27;;;10.90;56.60;;;;;;5086901;27;20461;-87
2023/01/14 01:48:04;;;;;;;12.77;4.60;;;11.00;56.10;;;;;;5069441;28;20446;-87
2023/01/14 01:50:31;;;;;;;21.00;8.87;;;11.10;56.10;;;;;;5065215;28;20481;-86
2023/01/14 01:53:00;;;;;;;19.23;5.13;;;11.10;55.60;;;;;;5064374;28;20439;-87
2023/01/14 01:55:29;;;;;;;17.33;7.00;;;11.10;55.60;;;;;;5085296;27;20484;-87
2023/01/14 01:57:56;;;;;;;12.10;4.23;;;11.30;55.40;;;;;;5052587;28;20493;-86
2023/01/14 02:00:27;;;;;;;24.63;9.03;;;11.40;55.20;;;;;;5053270;27;20475;-86
2023/01/14 02:02:59;;;;;;;20.00;7.13;;;11.60;55.00;;;;;;5043846;28;20462;-87
2023/01/14 02:05:27;;;;;;;19.87;6.17;;;11.80;54.80;;;;;;5059301;28;20448;-86
2023/01/14 02:07:56;;;;;;;14.90;3.63;;;11.90;54.20;;;;;;5052580;28;20447;-88
2023/01/14 02:10:32;;;;;;;16.00;6.20;;;11.90;54.30;;;;;;5068455;28;20455;-86
2023/01/14 02:13:17;;;;;;;28.90;11.67;;;12.00;53.90;;;;;;5045268;28;20447;-88
2023/01/14 02:15:56;;;;;;;27.60;9.50;;;12.00;53.90;;;;;;5059539;28;20841;-87
2023/01/14 02:18:38;;;;;;;21.83;8.63;;;11.90;53.70;;;;;;5052072;27;20434;-87
2023/01/14 02:21:13;;;;;;;10.70;4.37;;;11.90;54.30;;;;;;5069592;28;20819;-87
2023/01/14 02:24:26;;;;;;;8.20;3.50;;;12.00;53.90;;;;;;5049881;28;20508;-87
2023/01/14 02:27:26;;;;;;;6.00;2.30;;;11.90;53.90;;;;;;5041875;28;20459;-87
2023/01/14 02:30:09;;;;;;;14.10;4.43;;;11.60;54.40;;;;;;5040274;28;20533;-89
2023/01/14 02:32:50;;;;;;;32.70;10.47;;;11.50;54.60;;;;;;5083584;28;20528;-87
2023/01/14 02:35:30;;;;;;;26.03;11.03;;;11.70;54.80;;;;;;5060834;28;20438;-87
2023/01/14 02:38:19;;;;;;;15.97;4.20;;;11.70;54.60;;;;;;5058159;28;20462;-87
2023/01/14 02:40:52;;;;;;;52.57;15.87;;;11.30;54.60;;;;;;5051987;28;20524;-88
2023/01/14 02:46:21;;;;;;;12.03;4.80;;;11.40;54.90;;;;;;5062971;28;20472;-86
2023/01/14 02:48:51;;;;;;;40.90;13.20;;;11.50;54.70;;;;;;5044417;28;20450;-87
2023/01/14 02:51:19;;;;;;;15.53;5.60;;;11.40;54.60;;;;;;5061418;28;20531;-87
2023/01/14 02:53:47;;;;;;;26.93;11.43;;;11.30;54.60;;;;;;5084106;28;20504;-87
2023/01/14 02:56:15;;;;;;;16.87;3.30;;;11.40;54.90;;;;;;5103823;27;20449;-88
2023/01/14 02:59:06;;;;;;;12.10;5.33;;;11.60;54.50;;;;;;5066947;27;20454;-89
2023/01/14 03:02:13;;;;;;;17.30;6.90;;;11.50;54.40;;;;;;5084161;27;20967;-87
2023/01/14 03:04:56;;;;;;;10.00;5.00;;;11.50;54.60;;;;;;5074710;27;20490;-87
2023/01/14 03:07:28;;;;;;;6.30;3.33;;;11.60;54.40;;;;;;5064681;27;20450;-87
2023/01/14 03:10:03;;;;;;;11.70;5.43;;;11.50;54.20;;;;;;5050951;28;20527;-87
2023/01/14 03:12:40;;;;;;;10.37;3.30;;;11.60;54.50;;;;;;5068540;27;20525;-87
2023/01/14 03:15:17;;;;;;;6.80;2.67;;;11.50;54.40;;;;;;5084312;28;20542;-88
2023/01/14 03:17:50;;;;;;;11.33;2.73;;;11.60;54.30;;;;;;5058799;28;20465;-86
2023/01/14 03:20:21;;;;;;;9.63;2.90;;;11.50;54.40;;;;;;5077204;28;20965;-87
2023/01/14 03:22:51;;;;;;;14.13;3.60;;;11.50;54.30;;;;;;5068442;28;20447;-87
2023/01/14 03:25:19;;;;;;;11.63;2.87;;;11.40;54.60;;;;;;5054333;28;20487;-87
2023/01/14 03:27:50;;;;;;;5.70;2.50;;;11.40;54.50;;;;;;5061337;28;20465;-88
2023/01/14 03:30:25;;;;;;;8.00;2.23;;;11.30;54.70;;;;;;5084575;28;20876;-86
2023/01/14 03:32:58;;;;;;;6.53;1.53;;;11.50;54.60;;;;;;5082596;28;20951;-86
2023/01/14 03:35:31;;;;;;;7.13;2.60;;;11.50;54.40;;;;;;5052451;27;20966;-88
2023/01/14 03:38:03;;;;;;;7.50;3.43;;;11.40;54.40;;;;;;5068618;28;20469;-89
2023/01/14 03:40:32;;;;;;;9.47;2.93;;;11.50;54.50;;;;;;5070522;28;20466;-89
2023/01/14 03:43:04;;;;;;;7.20;2.40;;;11.30;54.40;;;;;;5064862;28;20443;-86
2023/01/14 03:45:35;;;;;;;9.50;2.60;;;11.40;54.70;;;;;;5069853;28;20430;-87
2023/01/14 03:48:05;;;;;;;8.60;2.33;;;11.40;54.40;;;;;;5068577;28;20500;-87
2023/01/14 03:50:41;;;;;;;10.00;2.23;;;11.20;54.80;;;;;;5067619;28;20470;-89
2023/01/14 03:53:16;;;;;;;4.63;1.90;;;11.10;54.70;;;;;;5067142;28;20451;-89
2023/01/14 03:55:54;;;;;;;16.97;4.40;;;11.10;54.80;;;;;;5061434;28;20499;-87
2023/01/14 03:58:31;;;;;;;18.97;3.93;;;10.80;55.00;;;;;;5064246;28;20477;-88
2023/01/14 04:01:04;;;;;;;11.23;4.80;;;10.90;55.30;;;;;;5068167;28;20887;-87
2023/01/14 04:03:32;;;;;;;19.50;6.67;;;10.80;55.20;;;;;;5075185;28;20479;-88
2023/01/14 04:06:00;;;;;;;28.00;5.00;;;10.80;55.30;;;;;;5082060;28;20443;-86
2023/01/14 04:08:27;;;;;;;28.73;11.97;;;10.80;55.30;;;;;;5072193;28;20579;-87
2023/01/14 04:10:54;;;;;;;18.87;6.50;;;11.00;54.90;;;;;;5081016;28;20979;-87
2023/01/14 04:16:06;;;;;;;10.03;4.57;;;11.00;55.10;;;;;;5085684;28;20443;-87
2023/01/14 04:18:34;;;;;;;30.03;8.90;;;10.90;55.30;;;;;;5084160;28;20565;-87
2023/01/14 04:21:01;;;;;;;46.43;22.80;;;11.00;55.00;;;;;;5083558;28;20482;-88
2023/01/14 04:23:28;;;;;;;8.00;4.10;;;11.00;54.80;;;;;;5052108;28;20450;-87
2023/01/14 04:25:58;;;;;;;13.97;2.13;;;11.00;54.70;;;;;;5066036;28;20435;-87
2023/01/14 04:28:26;;;;;;;9.97;1.67;;;11.10;54.50;;;;;;5067676;28;20442;-87
2023/01/14 04:30:53;;;;;;;5.70;2.00;;;11.10;54.40;;;;;;5065801;28;20481;-86
2023/01/14 04:33:21;;;;;;;15.37;2.67;;;11.10;54.50;;;;;;5068511;28;20445;-87
2023/01/14 04:35:51;;;;;;;5.63;2.60;;;11.20;54.50;;;;;;5059856;28;20469;-88
2023/01/14 04:38:20;;;;;;;9.03;1.90;;;11.00;54.50;;;;;;5050901;28;21014;-87
2023/01/14 04:40:49;;;;;;;9.03;2.00;;;10.80;55.10;;;;;;5041428;28;20482;-87
2023/01/14 04:43:15;;;;;;;10.53;2.40;;;10.70;55.50;;;;;;5068352;28;20830;-89
2023/01/14 04:45:42;;;;;;;5.40;1.33;;;10.70;55.40;;;;;;5063645;28;20981;-87
2023/01/14 04:48:09;;;;;;;9.97;2.03;;;10.80;55.20;;;;;;5067517;28;20489;-87
2023/01/14 04:50:41;;;;;;;5.23;1.67;;;10.90;55.00;;;;;;5081032;28;20470;-88
2023/01/14 04:53:11;;;;;;;8.20;1.60;;;10.80;54.90;;;;;;5067429;28;20469;-86
2023/01/14 04:55:39;;;;;;;7.03;1.70;;;10.80;54.90;;;;;;5064719;28;20836;-86
2023/01/14 04:58:09;;;;;;;5.00;1.83;;;10.80;54.80;;;;;;5054825;28;20483;-87
2023/01/14 05:00:36;;;;;;;16.73;2.20;;;10.60;55.10;;;;;;5055224;27;20848;-87
2023/01/14 05:03:04;;;;;;;6.10;1.97;;;10.70;55.20;;;;;;5051125;28;21196;-87
2023/01/14 05:05:31;;;;;;;7.00;1.90;;;10.60;55.20;;;;;;5079898;28;20806;-87
2023/01/14 05:07:58;;;;;;;6.13;1.60;;;10.50;55.50;;;;;;5057216;28;20478;-87
2023/01/14 05:10:27;;;;;;;12.90;2.10;;;10.30;56.10;;;;;;5069737;28;20470;-88
2023/01/14 05:12:57;;;;;;;7.60;2.10;;;10.50;56.00;;;;;;5070724;28;20451;-87
2023/01/14 05:15:26;;;;;;;6.67;2.83;;;10.50;55.60;;;;;;5085965;28;20448;-87
2023/01/14 05:17:53;;;;;;;5.17;2.23;;;10.50;55.70;;;;;;5048877;28;20559;-87
2023/01/14 05:20:23;;;;;;;5.27;2.07;;;10.50;55.90;;;;;;5046094;28;20466;-87
2023/01/14 05:22:50;;;;;;;6.43;1.97;;;10.50;55.90;;;;;;5059446;27;20460;-88
2023/01/14 05:25:17;;;;;;;9.00;2.17;;;10.60;55.60;;;;;;5054805;28;20461;-87
2023/01/14 05:27:46;;;;;;;6.40;2.00;;;10.60;55.60;;;;;;5083754;28;20451;-87
2023/01/14 05:30:13;;;;;;;9.70;2.07;;;10.70;55.80;;;;;;5070040;28;20470;-87
2023/01/14 05:32:40;;;;;;;6.07;2.47;;;10.60;55.20;;;;;;5065635;28;20450;-87
2023/01/14 05:35:08;;;;;;;8.17;1.70;;;10.40;55.70;;;;;;5053313;28;20451;-85
2023/01/14 05:37:35;;;;;;;8.50;1.80;;;10.10;56.50;;;;;;5064808;28;20468;-87
2023/01/14 05:40:03;;;;;;;7.83;2.00;;;10.10;56.90;;;;;;5086705;28;20541;-86
2023/01/14 05:48:00;;;;;;;8.10;2.57;;;10.00;56.90;;;;;;5067208;28;20444;-87
2023/01/14 05:50:27;;;;;;;6.47;2.60;;;10.20;56.70;;;;;;5051604;28;20469;-87
2023/01/14 05:52:54;;;;;;;5.00;2.17;;;10.30;56.20;;;;;;5050059;27;20443;-88
2023/01/14 05:55:21;;;;;;;8.77;3.17;;;9.90;58.10;;;;;;5053878;28;20446;-88
2023/01/14 05:57:49;;;;;;;5.53;2.30;;;9.50;59.30;;;;;;5084233;27;20572;-88
2023/01/14 06:08:29;;;;;;;5.53;2.43;;;9.40;60.40;;;;;;5074529;28;20501;-87
2023/01/14 06:10:56;;;;;;;8.63;2.50;;;9.80;59.40;;;;;;5048997;28;20493;-88
2023/01/14 06:13:23;;;;;;;10.43;2.00;;;10.10;58.30;;;;;;5067483;28;21035;-87
2023/01/14 06:15:55;;;;;;;8.10;3.40;;;10.30;57.10;;;;;;5049473;27;20451;-87
2023/01/14 06:18:23;;;;;;;15.17;3.60;;;10.00;57.90;;;;;;5051195;28;20474;-86
2023/01/14 06:20:50;;;;;;;5.40;2.90;;;10.30;57.50;;;;;;5053328;28;20829;-87
2023/01/14 06:23:18;;;;;;;13.97;4.53;;;10.40;57.00;;;;;;5067957;28;20451;-88
2023/01/14 06:25:46;;;;;;;8.17;3.37;;;10.50;56.90;;;;;;5082160;28;20453;-87
2023/01/14 06:28:13;;;;;;;10.47;3.63;;;10.60;56.60;;;;;;5050860;28;20952;-88
2023/01/14 06:30:40;;;;;;;10.17;3.60;;;10.50;56.90;;;;;;5065144;28;20467;-86
2023/01/14 06:33:09;;;;;;;6.30;1.93;;;10.40;57.00;;;;;;5051200;28;20453;-87
2023/01/14 06:35:42;;;;;;;13.60;2.67;;;10.30;57.30;;;;;;5050193;28;20450;-86
2023/01/14 06:38:09;;;;;;;10.57;2.70;;;10.40;57.20;;;;;;5050658;28;21084;-87
2023/01/14 06:40:37;;;;;;;13.97;1.73;;;10.20;57.90;;;;;;5067672;28;20555;-87
2023/01/14 06:43:04;;;;;;;3.80;2.07;;;10.30;58.00;;;;;;5065754;28;20491;-86
2023/01/14 06:45:31;;;;;;;4.97;2.10;;;10.30;58.00;;;;;;5060661;28;20454;-87
2023/01/14 06:47:59;;;;;;;11.00;2.07;;;9.90;60.10;;;;;;5045383;28;20816;-87
2023/01/14 06:50:27;;;;;;;8.13;2.70;;;9.90;59.90;;;;;;5085799;28;20473;-86
2023/01/14 06:52:54;;;;;;;6.60;1.43;;;9.90;60.40;;;;;;5049125;28;20975;-86
2023/01/14 06:55:21;;;;;;;6.57;2.00;;;9.60;60.80;;;;;;5085090;28;20431;-86
2023/01/14 06:57:48;;;;;;;11.37;3.17;;;9.70;61.60;;;;;;5086609;28;20975;-86
2023/01/14 07:00:16;;;;;;;5.40;1.90;;;9.90;60.90;;;;;;5062657;28;20583;-86
2023/01/14 07:02:43;;;;;;;10.00;3.17;;;10.10;59.10;;;;;;5059759;27;20465;-87
2023/01/14 07:05:10;;;;;;;6.07;1.60;;;10.40;58.60;;;;;;5052401;28;20466;-87
2023/01/14 07:07:38;;;;;;;5.90;1.80;;;10.20;58.50;;;;;;5066613;28;20810;-86
2023/01/14 07:10:06;;;;;;;4.50;1.80;;;10.10;58.90;;;;;;5052513;28;20528;-86
2023/01/14 07:12:33;;;;;;;6.70;2.10;;;10.10;59.00;;;;;;5081462;28;20456;-87
2023/01/14 07:15:00;;;;;;;4.17;1.57;;;9.70;60.10;;;;;;5085942;28;20528;-87
2023/01/14 07:17:26;;;;;;;5.13;2.20;;;9.50;61.20;;;;;;5087208;28;20465;-88
2023/01/14 07:19:54;;;;;;;6.97;1.50;;;9.60;61.10;;;;;;5079248;28;20459;-86
2023/01/14 07:22:21;;;;;;;21.80;2.50;;;9.60;60.70;;;;;;5066000;28;21148;-87
2023/01/14 07:24:49;;;;;;;8.10;2.40;;;9.80;60.60;;;;;;5083191;28;20857;-86
2023/01/14 07:27:16;;;;;;;11.20;2.63;;;9.90;59.60;;;;;;5091681;28;20865;-88
2023/01/14 07:29:43;;;;;;;9.07;1.80;;;10.20;58.60;;;;;;5051044;27;20462;-86
2023/01/14 07:32:10;;;;;;;7.53;1.73;;;10.30;58.30;;;;;;5059624;28;20462;-88
2023/01/14 07:34:37;;;;;;;6.27;1.53;;;10.30;57.80;;;;;;5050999;28;20462;-86
2023/01/14 07:37:04;;;;;;;139.80;46.17;;;10.40;58.20;;;;;;5085516;28;20914;-87
2023/01/14 07:39:31;;;;;;;26.63;9.63;;;10.30;57.70;;;;;;5057525;28;20474;-89
2023/01/14 07:41:59;;;;;;;7.10;3.60;;;10.40;57.90;;;;;;5053983;28;20447;-88
2023/01/14 07:44:26;;;;;;;89.30;41.83;;;10.50;57.60;;;;;;5051088;28;20828;-89
2023/01/14 07:46:54;;;;;;;16.73;7.37;;;10.40;57.30;;;;;;5068408;28;20876;-89
2023/01/14 07:49:22;;;;;;;13.03;7.67;;;10.50;57.70;;;;;;5050147;28;20562;-88
2023/01/14 07:51:50;;;;;;;9.17;2.10;;;10.50;57.20;;;;;;5074122;28;21007;-89
2023/01/14 07:54:17;;;;;;;7.90;5.20;;;10.70;57.10;;;;;;5052736;28;20956;-88
2023/01/14 07:56:44;;;;;;;8.20;3.00;;;10.50;56.70;;;;;;5086301;28;20480;-87
2023/01/14 07:59:13;;;;;;;120.13;44.37;;;10.40;57.10;;;;;;5073223;28;20470;-88
2023/01/14 08:01:40;;;;;;;20.97;7.60;;;10.30;56.80;;;;;;5069921;28;20476;-89
2023/01/14 08:04:07;;;;;;;8.27;2.67;;;10.20;57.70;;;;;;5081659;28;20504;-89
2023/01/14 08:06:34;;;;;;;16.23;7.77;;;10.10;57.70;;;;;;5045729;28;20446;-86
2023/01/14 08:09:02;;;;;;;8.20;5.93;;;10.20;57.60;;;;;;5067620;28;20498;-88
2023/01/14 08:11:29;;;;;;;4.47;2.27;;;10.30;57.80;;;;;;5053341;28;21198;-88
2023/01/14 08:13:56;;;;;;;224.40;130.27;;;10.40;57.10;;;;;;5076301;28;20449;-88
2023/01/14 08:16:25;;;;;;;16.43;9.60;;;10.10;57.60;;;;;;5055956;28;20542;-87
2023/01/14 08:18:52;;;;;;;20.40;14.83;;;10.40;57.60;;;;;;5049450;28;20467;-88
2023/01/14 08:21:19;;;;;;;12.83;2.87;;;10.40;57.40;;;;;;5052013;28;20476;-89
2023/01/14 08:23:46;;;;;;;19.13;13.50;;;10.60;57.20;;;;;;5052055;28;20446;-86
2023/01/14 08:26:14;;;;;;;19.03;9.27;;;10.60;56.00;;;;;;5052991;28;20544;-88
2023/01/14 08:28:41;;;;;;;20.80;13.73;;;10.40;56.70;;;;;;5051580;28;20458;-86
2023/01/14 08:31:11;;;;;;;5.57;2.53;;;10.50;56.60;;;;;;5052170;28;20494;-88
2023/01/14 08:33:41;;;;;;;5.60;2.03;;;10.30;57.30;;;;;;5054750;28;20462;-87
2023/01/14 08:36:11;;;;;;;15.57;2.43;;;10.20;57.30;;;;;;5083772;28;20478;-89
2023/01/14 08:38:40;;;;;;;6.30;1.80;;;10.30;57.00;;;;;;5058033;27;20455;-86
2023/01/14 08:41:09;;;;;;;7.67;2.00;;;10.50;56.60;;;;;;5074262;28;20477;-87
2023/01/14 08:43:37;;;;;;;6.13;2.60;;;10.80;56.60;;;;;;5060333;28;20457;-88
2023/01/14 08:46:05;;;;;;;9.77;2.30;;;11.10;56.20;;;;;;5070504;28;20523;-88
2023/01/14 08:48:32;;;;;;;13.83;3.60;;;11.30;55.30;;;;;;5088157;28;21155;-88
2023/01/14 08:51:01;;;;;;;8.20;1.87;;;11.40;54.80;;;;;;5051980;28;20474;-87
2023/01/14 08:53:29;;;;;;;7.60;3.83;;;11.20;54.80;;;;;;5057143;28;21072;-89
2023/01/14 08:55:57;;;;;;;4.97;2.40;;;11.40;55.00;;;;;;5073925;27;20434;-88
2023/01/14 08:58:24;;;;;;;5.07;2.00;;;11.50;55.10;;;;;;5060417;28;20474;-89
2023/01/14 09:00:55;;;;;;;9.40;1.50;;;11.50;54.50;;;;;;5084758;28;20983;-86
2023/01/14 09:03:22;;;;;;;7.70;2.63;;;11.40;54.20;;;;;;5071830;28;20451;-89
2023/01/14 09:05:49;;;;;;;3.47;1.53;;;11.40;54.70;;;;;;5070806;28;20433;-87
2023/01/14 09:19:15;;;;;;;8.97;2.60;;;11.40;55.20;;;;;;5069709;28;20446;-88
2023/01/14 09:21:42;;;;;;;10.70;5.87;;;11.50;54.50;;;;;;5059454;28;20439;-88
2023/01/14 09:24:11;;;;;;;28.63;10.10;;;11.10;55.90;;;;;;5056483;28;21000;-88
2023/01/14 09:26:38;;;;;;;41.20;24.00;;;11.10;56.20;;;;;;5090357;28;20499;-88
2023/01/14 09:29:05;;;;;;;12.53;6.80;;;11.10;56.20;;;;;;5069642;28;20581;-86
2023/01/14 09:31:32;;;;;;;8.70;2.53;;;11.00;56.80;;;;;;5072593;28;20926;-87
2023/01/14 09:33:59;;;;;;;8.37;7.47;;;11.10;56.70;;;;;;5070338;27;21264;-86
2023/01/14 09:36:26;;;;;;;8.20;4.13;;;11.10;56.20;;;;;;5072980;28;20482;-88
2023/01/14 09:38:53;;;;;;;4.50;2.10;;;11.00;56.50;;;;;;5090587;28;20527;-86
2023/01/14 09:41:27;;;;;;;4.60;3.77;;;11.00;56.80;;;;;;5069731;28;20470;-89
2023/01/14 09:43:55;;;;;;;7.63;3.07;;;11.00;57.20;;;;;;5068193;28;20442;-85
2023/01/14 09:46:25;;;;;;;9.30;4.60;;;11.30;56.80;;;;;;5088230;28;20443;-88
2023/01/14 09:48:53;;;;;;;7.30;2.77;;;11.60;56.30;;;;;;5054182;27;20964;-89
2023/01/14 09:51:42;;;;;;;13.40;2.47;;;11.30;55.90;;;;;;5060840;28;20459;-87
2023/01/14 09:54:13;;;;;;;5.03;3.50;;;11.30;56.20;;;;;;5074057;28;20442;-89
2023/01/14 09:56:48;;;;;;;11.13;4.03;;;11.60;56.20;;;;;;5069811;28;20496;-87
2023/01/14 09:59:23;;;;;;;32.20;24.07;;;11.70;56.40;;;;;;5055400;28;20466;-85
2023/01/14 10:01:55;;;;;;;7.17;2.37;;;11.80;56.60;;;;;;5060285;27;21035;-88
2023/01/14 10:04:45;;;;;;;15.40;3.40;;;11.50;56.80;;;;;;5056534;28;20450;-88
2023/01/14 10:07:14;;;;;;;5.50;2.90;;;11.70;57.10;;;;;;5046494;28;20451;-88
2023/01/14 10:09:45;;;;;;;30.53;19.07;;;11.70;58.00;;;;;;5072438;28;20577;-86
2023/01/14 10:12:18;;;;;;;64.47;39.10;;;11.40;58.10;;;;;;5089054;28;20450;-88
2023/01/14 10:14:50;;;;;;;4.53;2.40;;;11.30;58.20;;;;;;5041968;28;20453;-86
2023/01/14 10:17:22;;;;;;;4.73;1.67;;;11.50;58.00;;;;;;5089604;28;20495;-87
2023/01/14 10:19:52;;;;;;;14.77;9.30;;;11.50;58.20;;;;;;5059228;28;20835;-88
2023/01/14 10:22:29;;;;;;;7.53;2.00;;;11.70;58.00;;;;;;5055731;28;20524;-87
2023/01/14 10:24:56;;;;;;;4.47;2.10;;;11.70;58.10;;;;;;5084261;28;20442;-89
2023/01/14 10:27:30;;;;;;;4.50;2.03;;;11.60;57.90;;;;;;5090010;28;20435;-85
2023/01/14 10:30:13;;;;;;;6.57;1.80;;;11.60;58.40;;;;;;5060095;27;20474;-86
2023/01/14 10:32:40;;;;;;;3.70;2.27;;;11.50;58.30;;;;;;5069704;28;20454;-85
2023/01/14 10:35:12;;;;;;;8.80;1.60;;;11.70;58.40;;;;;;5071058;28;20466;-87
2023/01/14 10:37:39;;;;;;;5.07;1.60;;;11.80;58.20;;;;;;5055799;28;20867;-86
2023/01/14 10:40:19;;;;;;;5.57;1.57;;;11.90;57.60;;;;;;5053616;28;20552;-85
2023/01/14 10:42:48;;;;;;;4.83;1.43;;;11.50;58.70;;;;;;5102601;28;20488;-87
2023/01/14 10:45:15;;;;;;;4.20;1.53;;;11.20;59.30;;;;;;5086828;28;20455;-86
2023/01/14 10:47:44;;;;;;;3.07;1.10;;;11.40;59.60;;;;;;5070397;27;20438;-85
2023/01/14 10:50:23;;;;;;;3.53;0.97;;;11.70;58.60;;;;;;5071294;28;20496;-86
2023/01/14 10:52:52;;;;;;;7.87;2.10;;;11.70;58.20;;;;;;5068665;28;20444;-86
2023/01/14 10:55:23;;;;;;;4.43;3.10;;;11.90;58.40;;;;;;5088160;28;20438;-87
2023/01/14 10:57:57;;;;;;;5.60;2.00;;;12.10;57.70;;;;;;5066085;28;20446;-86
2023/01/14 11:00:34;;;;;;;11.33;3.20;;;12.20;57.80;;;;;;5070546;28;20473;-86
2023/01/14 11:03:02;;;;;;;2.73;1.60;;;12.30;57.20;;;;;;5063024;27;20450;-86
2023/01/14 11:05:32;;;;;;;3.00;1.87;;;12.30;57.70;;;;;;5070968;28;20446;-85
2023/01/14 11:08:06;;;;;;;3.33;1.47;;;12.20;57.30;;;;;;5067834;28;20507;-86
2023/01/14 11:10:33;;;;;;;5.80;1.77;;;12.50;57.00;;;;;;5079792;28;20464;-86
2023/01/14 11:13:26;;;;;;;4.07;1.40;;;12.50;56.60;;;;;;5050367;28;20443;-86
2023/01/14 11:15:53;;;;;;;4.57;2.07;;;12.30;57.10;;;;;;5050795;28;20948;-86
2023/01/14 11:18:27;;;;;;;5.60;2.53;;;12.40;57.10;;;;;;5070595;28;20454;-86
2023/01/14 11:21:21;;;;;;;4.57;2.57;;;12.50;56.60;;;;;;5085892;28;21051;-86
2023/01/14 11:23:55;;;;;;;2.13;1.30;;;12.40;56.80;;;;;;5070889;28;20439;-87
2023/01/14 11:26:25;;;;;;;5.60;1.77;;;12.20;56.80;;;;;;5104153;28;20975;-87
2023/01/14 11:29:12;;;;;;;6.77;4.90;;;12.40;56.90;;;;;;5069231;28;20546;-86
2023/01/14 11:31:40;;;;;;;9.33;1.90;;;12.60;56.40;;;;;;5060342;28;20991;-85
2023/01/14 11:34:22;;;;;;;5.07;1.93;;;12.30;56.70;;;;;;5057537;28;20450;-88
2023/01/14 11:36:49;;;;;;;8.50;1.93;;;12.30;57.30;;;;;;5068481;28;20447;-86
2023/01/14 11:39:21;;;;;;;4.00;1.43;;;12.50;57.20;;;;;;5053771;28;21006;-86
2023/01/14 11:41:48;;;;;;;5.70;2.00;;;12.40;56.90;;;;;;5067055;28;20449;-85
2023/01/14 11:44:25;;;;;;;2.30;2.10;;;12.70;56.50;;;;;;5070760;28;21432;-85
2023/01/14 11:47:11;;;;;;;2.10;1.60;;;13.00;56.30;;;;;;5086435;28;20471;-84
2023/01/14 11:49:38;;;;;;;3.37;1.17;;;13.20;55.30;;;;;;5084925;28;20472;-84
2023/01/14 11:52:07;;;;;;;2.70;1.53;;;13.20;55.20;;;;;;5104542;28;20458;-86
2023/01/14 11:54:37;;;;;;;5.60;2.07;;;12.90;56.00;;;;;;5069332;28;20813;-84
2023/01/14 11:57:06;;;;;;;4.80;2.30;;;13.00;56.20;;;;;;5065015;28;22046;-86
2023/01/14 11:59:38;;;;;;;3.50;1.97;;;12.90;56.30;;;;;;5081944;28;20924;-85
2023/01/14 12:02:13;;;;;;;1.67;1.00;;;13.00;56.10;;;;;;5080462;28;20469;-86
2023/01/14 12:04:46;;;;;;;2.67;1.50;;;13.20;55.80;;;;;;5085186;28;20904;-86
2023/01/14 12:07:18;;;;;;;2.40;1.30;;;13.30;55.70;;;;;;5079419;28;21451;-85
2023/01/14 12:09:51;;;;;;;1.70;0.93;;;13.20;55.50;;;;;;5063624;28;20463;-88
2023/01/14 12:12:21;;;;;;;5.13;1.20;;;13.30;55.50;;;;;;5070490;28;20902;-87
2023/01/14 12:17:56;;;;;;;5.00;1.53;;;12.60;56.80;;;;;;5068339;28;21189;-87
2023/01/14 12:20:27;;;;;;;2.00;1.37;;;12.70;57.20;;;;;;5069298;28;20469;-86
2023/01/14 12:23:00;;;;;;;2.73;1.60;;;13.00;56.50;;;;;;5080928;28;21020;-86
2023/01/14 12:25:31;;;;;;;1.90;0.90;;;13.00;55.90;;;;;;5105721;28;20966;-85
2023/01/14 12:28:02;;;;;;;2.87;1.87;;;13.00;55.90;;;;;;5082762;28;20447;-87
2023/01/14 12:30:49;;;;;;;5.30;1.80;;;13.00;56.40;;;;;;5051528;28;20467;-84
2023/01/14 12:33:24;;;;;;;4.40;1.20;;;13.30;55.90;;;;;;5070578;28;20447;-86
2023/01/14 12:35:58;;;;;;;3.77;1.30;;;13.10;55.40;;;;;;5075873;28;20445;-87
2023/01/14 12:47:04;;;;;;;1.70;1.20;;;13.10;55.80;;;;;;5065822;28;20447;-88
2023/01/14 12:49:32;;;;;;;1.47;1.27;;;13.20;55.60;;;;;;5102982;28;20462;-88
2023/01/14 12:52:01;;;;;;;1.37;0.90;;;13.20;55.30;;;;;;5055340;28;20454;-87
2023/01/14 12:54:34;;;;;;;3.77;1.63;;;13.20;55.20;;;;;;5068152;28;20469;-86
2023/01/14 12:57:03;;;;;;;3.40;2.00;;;13.10;55.30;;;;;;5063810;28;20589;-87
2023/01/14 12:59:32;;;;;;;5.63;1.10;;;12.80;56.20;;;;;;5051996;28;20471;-87
2023/01/14 13:02:04;;;;;;;4.27;1.47;;;12.50;56.10;;;;;;5063907;28;20442;-86
2023/01/14 13:04:37;;;;;;;3.43;1.27;;;12.30;57.20;;;;;;5069109;28;20463;-87
2023/01/14 13:07:06;;;;;;;2.70;1.23;;;12.50;57.10;;;;;;5082715;28;20443;-87
2023/01/14 13:09:43;;;;;;;1.47;1.10;;;12.60;56.80;;;;;;5082397;28;20471;-87
2023/01/14 13:12:19;;;;;;;2.50;1.20;;;12.90;55.90;;;;;;5066006;28;20455;-88
2023/01/14 13:14:54;;;;;;;2.57;1.03;;;13.20;56.00;;;;;;5051889;28;20453;-86
2023/01/14 13:17:35;;;;;;;4.00;2.07;;;13.10;55.30;;;;;;5069850;28;20434;-88
2023/01/14 13:20:05;;;;;;;4.67;0.90;;;13.00;55.60;;;;;;5041757;27;20923;-87
2023/01/14 13:22:43;;;;;;;1.40;1.00;;;12.80;56.10;;;;;;5051279;28;20455;-87
2023/01/14 13:25:42;;;;;;;2.43;1.20;;;12.80;55.80;;;;;;5104446;27;20434;-87
2023/01/14 13:28:33;;;;;;;6.23;1.90;;;12.80;55.90;;;;;;5062160;28;20967;-88
2023/01/14 13:31:31;;;;;;;6.60;4.13;;;13.10;55.80;;;;;;5054614;28;20874;-85
2023/01/14 13:34:44;;;;;;;2.03;1.20;;;13.30;55.30;;;;;;5076633;27;20447;-86
2023/01/14 13:37:24;;;;;;;3.03;2.07;;;13.30;55.00;;;;;;5068721;28;20912;-87
2023/01/14 13:39:54;;;;;;;1.47;1.10;;;13.20;55.40;;;;;;5102714;28;20481;-86
2023/01/14 13:42:26;;;;;;;6.80;2.27;;;13.20;55.30;;;;;;5052904;28;20948;-88
2023/01/14 13:44:56;;;;;;;2.50;1.27;;;12.90;55.50;;;;;;5052979;27;20454;-86
2023/01/14 13:47:29;;;;;;;4.40;2.07;;;12.80;57.80;;;;;;5076216;28;20445;-85